sensor_id;sensor_type;location;lat;lon;timestamp;temperature;humidity
57030;DHT22;42920;45.306;20.448;2024-03-22T00:00:16;256.30;2252.80
57030;DHT22;42920;45.306;20.448;2024-03-22T00:02:42;256.40;2252.80
57030;DHT22;42920;45.306;20.448;2024-03-22T00:05:08;256.20;2252.80
57030;DHT22;42920;45.306;20.448;2024-03-22T00:07:33;256.00;2252.80
57030;DHT22;42920;45.306;20.448;2024-03-22T00:09:59;231.30;2252.80
57030;DHT22;42920;45.306;20.448;2024-03-22T00:12:25;231.30;2252.80
57030;DHT22;42920;45.306;20.448;2024-03-22T00:14:51;231.20;2252.80
57030;DHT22;42920;45.306;20.448;2024-03-22T00:17:20;231.10;2252.80
57030;DHT22;42920;45.306;20.448;2024-03-22T00:19:46;256.20;2252.80
57030;DHT22;42920;45.306;20.448;2024-03-22T00:22:12;231.20;2252.80
57030;DHT22;42920;45.306;20.448;2024-03-22T00:24:37;231.30;2252.80
57030;DHT22;42920;45.306;20.448;2024-03-22T00:27:03;256.00;2252.80
57030;DHT22;42920;45.306;20.448;2024-03-22T00:29:29;231.30;2252.80
57030;DHT22;42920;45.306;20.448;2024-03-22T00:31:54;231.30;2252.80
57030;DHT22;42920;45.306;20.448;2024-03-22T00:34:20;231.30;2252.80
57030;DHT22;42920;45.306;20.448;2024-03-22T00:36:46;231.20;2252.80
57030;DHT22;42920;45.306;20.448;2024-03-22T00:39:12;231.20;2252.80
57030;DHT22;42920;45.306;20.448;2024-03-22T00:41:38;231.10;2252.80
57030;DHT22;42920;45.306;20.448;2024-03-22T00:44:04;231.10;2252.80
57030;DHT22;42920;45.306;20.448;2024-03-22T00:46:30;231.10;2252.80
57030;DHT22;42920;45.306;20.448;2024-03-22T00:48:57;231.00;2252.80
57030;DHT22;42920;45.306;20.448;2024-03-22T00:51:25;230.90;2252.80
57030;DHT22;42920;45.306;20.448;2024-03-22T00:53:51;230.80;2252.80
57030;DHT22;42920;45.306;20.448;2024-03-22T00:56:17;230.70;2252.80
57030;DHT22;42920;45.306;20.448;2024-03-22T00:58:42;230.70;2252.80
57030;DHT22;42920;45.306;20.448;2024-03-22T01:01:08;230.60;2252.80
57030;DHT22;42920;45.306;20.448;2024-03-22T01:03:34;230.60;2252.80
57030;DHT22;42920;45.306;20.448;2024-03-22T01:05:59;230.60;2252.80
57030;DHT22;42920;45.306;20.448;2024-03-22T01:08:25;230.60;2252.80
57030;DHT22;42920;45.306;20.448;2024-03-22T01:10:51;230.60;2252.80
57030;DHT22;42920;45.306;20.448;2024-03-22T01:13:17;230.60;2252.80
57030;DHT22;42920;45.306;20.448;2024-03-22T01:15:43;230.40;2252.80
57030;DHT22;42920;45.306;20.448;2024-03-22T01:18:09;230.40;2252.80
57030;DHT22;42920;45.306;20.448;2024-03-22T01:20:35;205.70;2252.80
57030;DHT22;42920;45.306;20.448;2024-03-22T01:23:01;205.70;2252.80
57030;DHT22;42920;45.306;20.448;2024-03-22T01:25:27;205.70;2252.80
57030;DHT22;42920;45.306;20.448;2024-03-22T01:27:54;205.70;2252.80
57030;DHT22;42920;45.306;20.448;2024-03-22T01:30:19;205.70;2252.80
57030;DHT22;42920;45.306;20.448;2024-03-22T01:32:45;205.60;2252.80
57030;DHT22;42920;45.306;20.448;2024-03-22T01:35:11;205.70;2252.80
57030;DHT22;42920;45.306;20.448;2024-03-22T01:37:37;205.70;2252.80
57030;DHT22;42920;45.306;20.448;2024-03-22T01:40:03;205.70;2252.80
57030;DHT22;42920;45.306;20.448;2024-03-22T01:42:30;205.70;2252.80
57030;DHT22;42920;45.306;20.448;2024-03-22T01:44:56;205.70;2252.80
57030;DHT22;42920;45.306;20.448;2024-03-22T01:47:22;205.70;2252.80
57030;DHT22;42920;45.306;20.448;2024-03-22T01:49:49;205.70;2252.80
57030;DHT22;42920;45.306;20.448;2024-03-22T01:52:16;205.70;2252.80
57030;DHT22;42920;45.306;20.448;2024-03-22T01:54:42;205.60;2252.80
57030;DHT22;42920;45.306;20.448;2024-03-22T01:57:08;205.60;2252.80
57030;DHT22;42920;45.306;20.448;2024-03-22T01:59:34;205.60;2252.80
57030;DHT22;42920;45.306;20.448;2024-03-22T02:02:00;205.50;2252.80
57030;DHT22;42920;45.306;20.448;2024-03-22T02:04:26;205.50;2252.80
57030;DHT22;42920;45.306;20.448;2024-03-22T02:06:52;205.50;2252.80
57030;DHT22;42920;45.306;20.448;2024-03-22T02:09:18;205.40;2252.80
57030;DHT22;42920;45.306;20.448;2024-03-22T02:11:46;205.30;2252.80
57030;DHT22;42920;45.306;20.448;2024-03-22T02:14:12;205.20;2252.80
57030;DHT22;42920;45.306;20.448;2024-03-22T02:16:40;205.30;2252.80
57030;DHT22;42920;45.306;20.448;2024-03-22T02:19:07;205.30;2252.80
57030;DHT22;42920;45.306;20.448;2024-03-22T02:21:33;205.40;2252.80
57030;DHT22;42920;45.306;20.448;2024-03-22T02:23:59;205.30;2252.80
57030;DHT22;42920;45.306;20.448;2024-03-22T02:26:25;205.40;2252.80
57030;DHT22;42920;45.306;20.448;2024-03-22T02:28:50;205.30;2252.80
57030;DHT22;42920;45.306;20.448;2024-03-22T02:31:16;205.30;2252.80
57030;DHT22;42920;45.306;20.448;2024-03-22T02:33:42;205.30;2252.80
57030;DHT22;42920;45.306;20.448;2024-03-22T02:36:08;205.30;2252.80
57030;DHT22;42920;45.306;20.448;2024-03-22T02:38:34;205.40;2252.80
57030;DHT22;42920;45.306;20.448;2024-03-22T02:41:00;205.40;2252.80
57030;DHT22;42920;45.306;20.448;2024-03-22T02:43:26;205.30;2252.80
57030;DHT22;42920;45.306;20.448;2024-03-22T02:45:51;205.30;2252.80
57030;DHT22;42920;45.306;20.448;2024-03-22T02:48:17;205.40;2252.80
57030;DHT22;42920;45.306;20.448;2024-03-22T02:50:43;205.30;2252.80
57030;DHT22;42920;45.306;20.448;2024-03-22T02:53:09;205.20;2252.80
57030;DHT22;42920;45.306;20.448;2024-03-22T02:55:40;205.10;2252.80
57030;DHT22;42920;45.306;20.448;2024-03-22T02:58:07;205.00;2252.80
57030;DHT22;42920;45.306;20.448;2024-03-22T03:00:37;205.00;2252.80
57030;DHT22;42920;45.306;20.448;2024-03-22T03:03:04;205.10;2252.80
57030;DHT22;42920;45.306;20.448;2024-03-22T03:05:30;205.10;2252.80
57030;DHT22;42920;45.306;20.448;2024-03-22T03:07:56;205.20;2252.80
57030;DHT22;42920;45.306;20.448;2024-03-22T03:10:22;205.20;2252.80
57030;DHT22;42920;45.306;20.448;2024-03-22T03:12:47;205.30;2252.80
57030;DHT22;42920;45.306;20.448;2024-03-22T03:15:13;205.30;2252.80
57030;DHT22;42920;45.306;20.448;2024-03-22T03:17:39;205.20;2252.80
57030;DHT22;42920;45.306;20.448;2024-03-22T03:20:05;205.20;2252.80
57030;DHT22;42920;45.306;20.448;2024-03-22T03:22:36;205.20;2252.80
57030;DHT22;42920;45.306;20.448;2024-03-22T03:25:03;205.20;2252.80
57030;DHT22;42920;45.306;20.448;2024-03-22T03:27:30;205.20;2252.80
57030;DHT22;42920;45.306;20.448;2024-03-22T03:29:56;205.20;2252.80
57030;DHT22;42920;45.306;20.448;2024-03-22T03:32:21;205.20;2252.80
57030;DHT22;42920;45.306;20.448;2024-03-22T03:34:47;205.20;2252.80
57030;DHT22;42920;45.306;20.448;2024-03-22T03:37:13;205.20;2252.80
57030;DHT22;42920;45.306;20.448;2024-03-22T03:39:39;205.20;2252.80
57030;DHT22;42920;45.306;20.448;2024-03-22T03:42:05;205.10;2252.80
57030;DHT22;42920;45.306;20.448;2024-03-22T03:44:31;205.10;2252.80
57030;DHT22;42920;45.306;20.448;2024-03-22T03:46:57;205.10;2252.80
57030;DHT22;42920;45.306;20.448;2024-03-22T03:49:23;205.10;2252.80
57030;DHT22;42920;45.306;20.448;2024-03-22T03:51:48;205.20;2252.80
57030;DHT22;42920;45.306;20.448;2024-03-22T03:54:14;205.20;2252.80
57030;DHT22;42920;45.306;20.448;2024-03-22T03:56:40;205.20;2252.80
57030;DHT22;42920;45.306;20.448;2024-03-22T03:59:06;205.20;2252.80
57030;DHT22;42920;45.306;20.448;2024-03-22T04:01:32;205.20;2252.80
57030;DHT22;42920;45.306;20.448;2024-03-22T04:03:58;205.10;2252.80
57030;DHT22;42920;45.306;20.448;2024-03-22T04:06:24;205.10;2252.80
57030;DHT22;42920;45.306;20.448;2024-03-22T04:08:49;205.10;2252.80
57030;DHT22;42920;45.306;20.448;2024-03-22T04:11:15;205.00;2252.80
57030;DHT22;42920;45.306;20.448;2024-03-22T04:13:41;204.90;2252.80
57030;DHT22;42920;45.306;20.448;2024-03-22T04:16:07;204.80;2252.80
57030;DHT22;42920;45.306;20.448;2024-03-22T04:18:33;204.80;2252.80
57030;DHT22;42920;45.306;20.448;2024-03-22T04:20:59;205.00;2252.80
57030;DHT22;42920;45.306;20.448;2024-03-22T04:23:25;204.80;2252.80
57030;DHT22;42920;45.306;20.448;2024-03-22T04:25:58;204.80;2252.80
57030;DHT22;42920;45.306;20.448;2024-03-22T04:28:30;204.80;2252.80
57030;DHT22;42920;45.306;20.448;2024-03-22T04:31:04;204.80;2252.80
57030;DHT22;42920;45.306;20.448;2024-03-22T04:33:31;180.10;2252.80
57030;DHT22;42920;45.306;20.448;2024-03-22T04:35:58;180.00;2252.80
57030;DHT22;42920;45.306;20.448;2024-03-22T04:38:25;180.00;2252.80
57030;DHT22;42920;45.306;20.448;2024-03-22T04:40:51;179.90;2252.80
57030;DHT22;42920;45.306;20.448;2024-03-22T04:43:18;180.00;2252.80
57030;DHT22;42920;45.306;20.448;2024-03-22T04:45:44;179.80;2252.80
57030;DHT22;42920;45.306;20.448;2024-03-22T04:48:13;179.90;2252.80
57030;DHT22;42920;45.306;20.448;2024-03-22T04:50:40;180.00;2252.80
57030;DHT22;42920;45.306;20.448;2024-03-22T04:53:06;180.00;2252.80
57030;DHT22;42920;45.306;20.448;2024-03-22T04:55:32;180.10;2252.80
57030;DHT22;42920;45.306;20.448;2024-03-22T04:58:01;204.80;2252.80
57030;DHT22;42920;45.306;20.448;2024-03-22T05:00:27;204.90;2252.80
57030;DHT22;42920;45.306;20.448;2024-03-22T05:02:53;204.90;2252.80
57030;DHT22;42920;45.306;20.448;2024-03-22T05:05:19;204.90;2252.80
57030;DHT22;42920;45.306;20.448;2024-03-22T05:07:45;205.10;2252.80
57030;DHT22;42920;45.306;20.448;2024-03-22T05:10:11;205.20;2252.80
57030;DHT22;42920;45.306;20.448;2024-03-22T05:12:37;205.10;2252.80
57030;DHT22;42920;45.306;20.448;2024-03-22T05:15:03;205.10;2252.80
57030;DHT22;42920;45.306;20.448;2024-03-22T05:17:29;205.20;2252.80
57030;DHT22;42920;45.306;20.448;2024-03-22T05:19:58;205.20;2252.80
57030;DHT22;42920;45.306;20.448;2024-03-22T05:22:24;205.40;2252.80
57030;DHT22;42920;45.306;20.448;2024-03-22T05:24:49;205.50;2252.80
57030;DHT22;42920;45.306;20.448;2024-03-22T05:27:15;205.60;2252.80
57030;DHT22;42920;45.306;20.448;2024-03-22T05:29:41;205.60;2252.80
57030;DHT22;42920;45.306;20.448;2024-03-22T05:32:07;230.40;2252.80
57030;DHT22;42920;45.306;20.448;2024-03-22T05:34:32;230.40;2252.80
57030;DHT22;42920;45.306;20.448;2024-03-22T05:36:58;230.40;2252.80
57030;DHT22;42920;45.306;20.448;2024-03-22T05:39:24;230.50;2252.80
57030;DHT22;42920;45.306;20.448;2024-03-22T05:41:50;230.40;2252.80
57030;DHT22;42920;45.306;20.448;2024-03-22T05:44:16;230.50;2252.80
57030;DHT22;42920;45.306;20.448;2024-03-22T05:46:41;230.60;2252.80
57030;DHT22;42920;45.306;20.448;2024-03-22T05:49:07;230.70;2252.80
57030;DHT22;42920;45.306;20.448;2024-03-22T05:51:33;230.60;2252.80
57030;DHT22;42920;45.306;20.448;2024-03-22T05:53:59;230.60;2252.80
57030;DHT22;42920;45.306;20.448;2024-03-22T05:56:25;230.70;2252.80
57030;DHT22;42920;45.306;20.448;2024-03-22T05:58:50;230.80;2252.80
57030;DHT22;42920;45.306;20.448;2024-03-22T06:01:16;230.80;2252.80
57030;DHT22;42920;45.306;20.448;2024-03-22T06:03:42;230.90;2252.80
57030;DHT22;42920;45.306;20.448;2024-03-22T06:06:08;230.90;2252.80
57030;DHT22;42920;45.306;20.448;2024-03-22T06:08:34;231.00;2252.80
57030;DHT22;42920;45.306;20.448;2024-03-22T06:11:06;231.00;2252.80
57030;DHT22;42920;45.306;20.448;2024-03-22T06:13:33;231.20;2252.80
57030;DHT22;42920;45.306;20.448;2024-03-22T06:15:58;231.30;2252.80
57030;DHT22;42920;45.306;20.448;2024-03-22T06:18:24;231.30;2252.80
57030;DHT22;42920;45.306;20.448;2024-03-22T06:20:50;256.10;2252.80
57030;DHT22;42920;45.306;20.448;2024-03-22T06:23:19;256.00;2252.80
57030;DHT22;42920;45.306;20.448;2024-03-22T06:25:52;231.30;2252.80
57030;DHT22;42920;45.306;20.448;2024-03-22T06:28:17;256.20;2252.80
57030;DHT22;42920;45.306;20.448;2024-03-22T06:30:43;256.30;2252.80
57030;DHT22;42920;45.306;20.448;2024-03-22T06:33:09;256.40;2252.80
57030;DHT22;42920;45.306;20.448;2024-03-22T06:35:35;256.50;2252.80
57030;DHT22;42920;45.306;20.448;2024-03-22T06:38:01;256.60;2201.60
57030;DHT22;42920;45.306;20.448;2024-03-22T06:40:30;256.80;2252.80
57030;DHT22;42920;45.306;20.448;2024-03-22T06:42:56;256.80;2252.80
57030;DHT22;42920;45.306;20.448;2024-03-22T06:45:22;256.60;2252.80
57030;DHT22;42920;45.306;20.448;2024-03-22T06:47:48;256.90;2252.80
57030;DHT22;42920;45.306;20.448;2024-03-22T06:50:13;281.90;2278.40
57030;DHT22;42920;45.306;20.448;2024-03-22T06:52:39;282.10;2278.40
57030;DHT22;42920;45.306;20.448;2024-03-22T06:55:05;282.40;2278.40
57030;DHT22;42920;45.306;20.448;2024-03-22T06:57:32;282.40;2278.40
57030;DHT22;42920;45.306;20.448;2024-03-22T07:02:26;307.60;2304.00
57030;DHT22;42920;45.306;20.448;2024-03-22T07:04:52;308.00;2252.80
57030;DHT22;42920;45.306;20.448;2024-03-22T07:07:18;332.90;2227.20
57030;DHT22;42920;45.306;20.448;2024-03-22T07:09:44;332.90;2227.20
57030;DHT22;42920;45.306;20.448;2024-03-22T07:12:11;333.30;2201.60
57030;DHT22;42920;45.306;20.448;2024-03-22T07:14:37;333.20;2150.40
57030;DHT22;42920;45.306;20.448;2024-03-22T07:17:03;333.40;2150.40
57030;DHT22;42920;45.306;20.448;2024-03-22T07:19:29;333.70;2099.20
57030;DHT22;42920;45.306;20.448;2024-03-22T07:21:55;358.50;2048.00
57030;DHT22;42920;45.306;20.448;2024-03-22T07:24:21;358.60;1971.20
57030;DHT22;42920;45.306;20.448;2024-03-22T07:26:49;358.70;1996.80
57030;DHT22;42920;45.306;20.448;2024-03-22T07:29:15;359.10;1971.20
57030;DHT22;42920;45.306;20.448;2024-03-22T07:31:41;359.20;1920.00
57030;DHT22;42920;45.306;20.448;2024-03-22T07:34:07;359.30;1868.80
57030;DHT22;42920;45.306;20.448;2024-03-22T07:36:37;384.10;1868.80
57030;DHT22;42920;45.306;20.448;2024-03-22T07:39:03;384.30;1817.60
57030;DHT22;42920;45.306;20.448;2024-03-22T07:41:32;384.50;1792.00
57030;DHT22;42920;45.306;20.448;2024-03-22T07:43:59;384.40;1766.40
57030;DHT22;42920;45.306;20.448;2024-03-22T07:46:26;384.70;1792.00
57030;DHT22;42920;45.306;20.448;2024-03-22T07:48:52;384.40;1715.20
57030;DHT22;42920;45.306;20.448;2024-03-22T07:51:19;384.40;1740.80
57030;DHT22;42920;45.306;20.448;2024-03-22T07:53:45;384.30;1715.20
57030;DHT22;42920;45.306;20.448;2024-03-22T07:56:11;384.70;1638.40
57030;DHT22;42920;45.306;20.448;2024-03-22T07:58:38;409.70;1638.40
57030;DHT22;42920;45.306;20.448;2024-03-22T08:01:04;409.70;1664.00
57030;DHT22;42920;45.306;20.448;2024-03-22T08:03:31;409.70;1612.80
57030;DHT22;42920;45.306;20.448;2024-03-22T08:05:56;409.90;1945.60
57030;DHT22;42920;45.306;20.448;2024-03-22T08:08:22;410.20;1587.20
57030;DHT22;42920;45.306;20.448;2024-03-22T08:10:48;410.00;1612.80
57030;DHT22;42920;45.306;20.448;2024-03-22T08:13:14;435.20;1587.20
57030;DHT22;42920;45.306;20.448;2024-03-22T08:15:41;410.40;1561.60
57030;DHT22;42920;45.306;20.448;2024-03-22T08:18:09;435.30;1612.80
57030;DHT22;42920;45.306;20.448;2024-03-22T08:20:35;435.40;1638.40
57030;DHT22;42920;45.306;20.448;2024-03-22T08:23:00;435.50;1612.80
57030;DHT22;42920;45.306;20.448;2024-03-22T08:25:26;435.40;1612.80
57030;DHT22;42920;45.306;20.448;2024-03-22T08:27:52;435.70;1561.60
57030;DHT22;42920;45.306;20.448;2024-03-22T08:30:21;435.50;1536.00
57030;DHT22;42920;45.306;20.448;2024-03-22T08:32:47;435.40;1561.60
57030;DHT22;42920;45.306;20.448;2024-03-22T08:35:13;435.20;1536.00
57030;DHT22;42920;45.306;20.448;2024-03-22T08:37:39;410.30;1536.00
57030;DHT22;42920;45.306;20.448;2024-03-22T08:40:05;410.30;1536.00
57030;DHT22;42920;45.306;20.448;2024-03-22T08:42:32;410.10;1587.20
57030;DHT22;42920;45.306;20.448;2024-03-22T08:44:58;410.10;1561.60
57030;DHT22;42920;45.306;20.448;2024-03-22T08:47:24;410.20;1587.20
57030;DHT22;42920;45.306;20.448;2024-03-22T08:49:50;410.10;1612.80
57030;DHT22;42920;45.306;20.448;2024-03-22T08:52:15;410.00;1612.80
57030;DHT22;42920;45.306;20.448;2024-03-22T08:54:41;410.00;1587.20
57030;DHT22;42920;45.306;20.448;2024-03-22T08:57:07;409.90;1587.20
57030;DHT22;42920;45.306;20.448;2024-03-22T08:59:33;409.90;1561.60
57030;DHT22;42920;45.306;20.448;2024-03-22T09:01:59;409.90;1561.60
57030;DHT22;42920;45.306;20.448;2024-03-22T09:04:27;410.00;1561.60
57030;DHT22;42920;45.306;20.448;2024-03-22T09:06:54;410.10;1536.00
57030;DHT22;42920;45.306;20.448;2024-03-22T09:09:19;410.10;1561.60
57030;DHT22;42920;45.306;20.448;2024-03-22T09:11:45;410.30;1587.20
57030;DHT22;42920;45.306;20.448;2024-03-22T09:14:12;410.30;1536.00
57030;DHT22;42920;45.306;20.448;2024-03-22T09:16:39;410.30;1536.00
57030;DHT22;42920;45.306;20.448;2024-03-22T09:19:06;435.20;1536.00
57030;DHT22;42920;45.306;20.448;2024-03-22T09:21:32;435.20;1536.00
57030;DHT22;42920;45.306;20.448;2024-03-22T09:23:58;435.50;1536.00
57030;DHT22;42920;45.306;20.448;2024-03-22T09:26:23;460.80;1510.40
57030;DHT22;42920;45.306;20.448;2024-03-22T09:28:49;461.20;1459.20
57030;DHT22;42920;45.306;20.448;2024-03-22T09:31:16;461.20;1484.80
57030;DHT22;42920;45.306;20.448;2024-03-22T09:33:42;461.30;1484.80
57030;DHT22;42920;45.306;20.448;2024-03-22T09:36:08;461.60;1459.20
57030;DHT22;42920;45.306;20.448;2024-03-22T09:38:34;486.50;1382.40
57030;DHT22;42920;45.306;20.448;2024-03-22T09:41:00;487.00;1356.80
57030;DHT22;42920;45.306;20.448;2024-03-22T09:43:31;487.30;1331.20
57030;DHT22;42920;45.306;20.448;2024-03-22T09:45:58;512.20;1305.60
57030;DHT22;42920;45.306;20.448;2024-03-22T09:48:24;512.70;1254.40
57030;DHT22;42920;45.306;20.448;2024-03-22T09:50:50;512.60;1228.80
57030;DHT22;42920;45.306;20.448;2024-03-22T09:53:19;537.60;1254.40
57030;DHT22;42920;45.306;20.448;2024-03-22T09:55:48;537.70;1228.80
57030;DHT22;42920;45.306;20.448;2024-03-22T09:58:15;538.00;1177.60
57030;DHT22;42920;45.306;20.448;2024-03-22T10:00:45;538.40;1203.20
57030;DHT22;42920;45.306;20.448;2024-03-22T10:03:11;538.30;1177.60
57030;DHT22;42920;45.306;20.448;2024-03-22T10:05:37;538.50;1126.40
57030;DHT22;42920;45.306;20.448;2024-03-22T10:08:03;538.50;1152.00
57030;DHT22;42920;45.306;20.448;2024-03-22T10:10:32;563.50;1177.60
57030;DHT22;42920;45.306;20.448;2024-03-22T10:13:00;538.30;1126.40
57030;DHT22;42920;45.306;20.448;2024-03-22T10:15:26;538.20;1152.00
57030;DHT22;42920;45.306;20.448;2024-03-22T10:17:52;538.20;1126.40
57030;DHT22;42920;45.306;20.448;2024-03-22T10:20:21;538.20;1126.40
57030;DHT22;42920;45.306;20.448;2024-03-22T10:22:58;538.20;1152.00
57030;DHT22;42920;45.306;20.448;2024-03-22T10:25:27;538.30;1100.80
57030;DHT22;42920;45.306;20.448;2024-03-22T10:27:56;563.30;1126.40
57030;DHT22;42920;45.306;20.448;2024-03-22T10:30:23;563.60;1126.40
57030;DHT22;42920;45.306;20.448;2024-03-22T10:32:50;563.70;1049.60
57030;DHT22;42920;45.306;20.448;2024-03-22T10:35:16;538.50;1100.80
57030;DHT22;42920;45.306;20.448;2024-03-22T10:37:42;538.50;1049.60
57030;DHT22;42920;45.306;20.448;2024-03-22T10:40:09;538.50;1049.60
57030;DHT22;42920;45.306;20.448;2024-03-22T10:42:36;563.20;1049.60
57030;DHT22;42920;45.306;20.448;2024-03-22T10:45:07;538.40;1075.20
57030;DHT22;42920;45.306;20.448;2024-03-22T10:47:35;538.40;1024.00
57030;DHT22;42920;45.306;20.448;2024-03-22T10:50:09;538.30;1075.20
57030;DHT22;42920;45.306;20.448;2024-03-22T10:52:59;538.20;1075.20
57030;DHT22;42920;45.306;20.448;2024-03-22T10:55:34;538.10;1075.20
57030;DHT22;42920;45.306;20.448;2024-03-22T10:58:01;537.80;1100.80
57030;DHT22;42920;45.306;20.448;2024-03-22T11:00:28;538.40;1049.60
57030;DHT22;42920;45.306;20.448;2024-03-22T11:02:54;538.50;1075.20
57030;DHT22;42920;45.306;20.448;2024-03-22T11:05:20;563.20;1126.40
57030;DHT22;42920;45.306;20.448;2024-03-22T11:07:46;538.40;1075.20
57030;DHT22;42920;45.306;20.448;2024-03-22T11:10:12;563.40;1126.40
57030;DHT22;42920;45.306;20.448;2024-03-22T11:12:39;564.00;1126.40
57030;DHT22;42920;45.306;20.448;2024-03-22T11:15:06;563.70;1100.80
57030;DHT22;42920;45.306;20.448;2024-03-22T11:17:32;563.80;1100.80
57030;DHT22;42920;45.306;20.448;2024-03-22T11:19:58;589.00;1049.60
57030;DHT22;42920;45.306;20.448;2024-03-22T11:22:25;588.90;1075.20
57030;DHT22;42920;45.306;20.448;2024-03-22T11:24:52;563.90;1075.20
57030;DHT22;42920;45.306;20.448;2024-03-22T11:27:18;563.90;1100.80
57030;DHT22;42920;45.306;20.448;2024-03-22T11:29:45;588.90;1100.80
57030;DHT22;42920;45.306;20.448;2024-03-22T11:32:12;588.90;1075.20
57030;DHT22;42920;45.306;20.448;2024-03-22T11:34:39;589.00;1049.60
57030;DHT22;42920;45.306;20.448;2024-03-22T11:37:08;563.90;1075.20
57030;DHT22;42920;45.306;20.448;2024-03-22T11:39:39;563.70;1126.40
57030;DHT22;42920;45.306;20.448;2024-03-22T11:42:06;563.70;1075.20
57030;DHT22;42920;45.306;20.448;2024-03-22T11:44:33;563.50;1126.40
57030;DHT22;42920;45.306;20.448;2024-03-22T11:47:01;563.40;1126.40
57030;DHT22;42920;45.306;20.448;2024-03-22T11:49:27;538.40;1100.80
57030;DHT22;42920;45.306;20.448;2024-03-22T11:51:53;538.30;1100.80
57030;DHT22;42920;45.306;20.448;2024-03-22T11:54:21;538.00;1126.40
57030;DHT22;42920;45.306;20.448;2024-03-22T11:56:47;537.60;1152.00
57030;DHT22;42920;45.306;20.448;2024-03-22T11:59:13;512.90;1126.40
57030;DHT22;42920;45.306;20.448;2024-03-22T12:01:40;512.50;1126.40
57030;DHT22;42920;45.306;20.448;2024-03-22T12:04:06;512.40;1152.00
57030;DHT22;42920;45.306;20.448;2024-03-22T12:06:36;512.70;1152.00
57030;DHT22;42920;45.306;20.448;2024-03-22T12:09:02;512.70;1126.40
57030;DHT22;42920;45.306;20.448;2024-03-22T12:11:29;512.90;1126.40
57030;DHT22;42920;45.306;20.448;2024-03-22T12:13:55;512.90;1152.00
57030;DHT22;42920;45.306;20.448;2024-03-22T12:16:20;512.90;1152.00
57030;DHT22;42920;45.306;20.448;2024-03-22T12:18:46;512.90;1126.40
57030;DHT22;42920;45.306;20.448;2024-03-22T12:21:12;512.90;1152.00
57030;DHT22;42920;45.306;20.448;2024-03-22T12:23:38;537.60;1228.80
57030;DHT22;42920;45.306;20.448;2024-03-22T12:26:04;537.80;1152.00
57030;DHT22;42920;45.306;20.448;2024-03-22T12:28:30;538.10;1152.00
57030;DHT22;42920;45.306;20.448;2024-03-22T12:30:56;538.10;1126.40
57030;DHT22;42920;45.306;20.448;2024-03-22T12:33:21;537.90;1126.40
57030;DHT22;42920;45.306;20.448;2024-03-22T12:35:47;537.90;1177.60
57030;DHT22;42920;45.306;20.448;2024-03-22T12:38:14;538.00;1203.20
57030;DHT22;42920;45.306;20.448;2024-03-22T12:40:40;538.40;1203.20
57030;DHT22;42920;45.306;20.448;2024-03-22T12:43:07;563.50;1203.20
57030;DHT22;42920;45.306;20.448;2024-03-22T12:45:34;563.80;1203.20
57030;DHT22;42920;45.306;20.448;2024-03-22T12:48:00;563.80;1177.60
57030;DHT22;42920;45.306;20.448;2024-03-22T12:50:26;564.00;1126.40
57030;DHT22;42920;45.306;20.448;2024-03-22T12:52:52;564.10;1152.00
57030;DHT22;42920;45.306;20.448;2024-03-22T12:55:18;588.80;1126.40
57030;DHT22;42920;45.306;20.448;2024-03-22T12:57:44;564.10;1126.40
57030;DHT22;42920;45.306;20.448;2024-03-22T13:00:10;564.00;1126.40
57030;DHT22;42920;45.306;20.448;2024-03-22T13:02:44;564.10;1126.40
57030;DHT22;42920;45.306;20.448;2024-03-22T13:05:10;564.10;1100.80
57030;DHT22;42920;45.306;20.448;2024-03-22T13:07:36;563.90;1126.40
57030;DHT22;42920;45.306;20.448;2024-03-22T13:10:03;563.80;1152.00
57030;DHT22;42920;45.306;20.448;2024-03-22T13:12:29;563.80;1177.60
57030;DHT22;42920;45.306;20.448;2024-03-22T13:14:57;563.60;1177.60
57030;DHT22;42920;45.306;20.448;2024-03-22T13:17:23;564.10;1152.00
57030;DHT22;42920;45.306;20.448;2024-03-22T13:19:49;563.70;1177.60
57030;DHT22;42920;45.306;20.448;2024-03-22T13:22:15;563.60;1152.00
57030;DHT22;42920;45.306;20.448;2024-03-22T13:24:44;563.60;1152.00
57030;DHT22;42920;45.306;20.448;2024-03-22T13:27:11;563.70;1203.20
57030;DHT22;42920;45.306;20.448;2024-03-22T13:29:41;563.70;1177.60
57030;DHT22;42920;45.306;20.448;2024-03-22T13:32:07;563.50;1177.60
57030;DHT22;42920;45.306;20.448;2024-03-22T13:34:39;563.20;1203.20
57030;DHT22;42920;45.306;20.448;2024-03-22T13:37:05;563.20;1177.60
57030;DHT22;42920;45.306;20.448;2024-03-22T13:39:33;563.30;1177.60
57030;DHT22;42920;45.306;20.448;2024-03-22T13:42:00;538.30;1177.60
57030;DHT22;42920;45.306;20.448;2024-03-22T13:44:26;538.20;1203.20
57030;DHT22;42920;45.306;20.448;2024-03-22T13:46:53;538.00;1203.20
57030;DHT22;42920;45.306;20.448;2024-03-22T13:49:19;538.00;1203.20
57030;DHT22;42920;45.306;20.448;2024-03-22T13:51:49;537.80;1228.80
57030;DHT22;42920;45.306;20.448;2024-03-22T13:54:15;537.80;1254.40
57030;DHT22;42920;45.306;20.448;2024-03-22T13:56:41;512.90;1228.80
57030;DHT22;42920;45.306;20.448;2024-03-22T13:59:07;537.70;1254.40
57030;DHT22;42920;45.306;20.448;2024-03-22T14:01:36;537.80;1280.00
57030;DHT22;42920;45.306;20.448;2024-03-22T14:04:05;538.00;1305.60
57030;DHT22;42920;45.306;20.448;2024-03-22T14:06:32;537.60;1305.60
57030;DHT22;42920;45.306;20.448;2024-03-22T14:08:58;512.90;1280.00
57030;DHT22;42920;45.306;20.448;2024-03-22T14:11:28;512.90;1305.60
57030;DHT22;42920;45.306;20.448;2024-03-22T14:13:58;512.70;1280.00
57030;DHT22;42920;45.306;20.448;2024-03-22T14:16:24;512.70;1280.00
57030;DHT22;42920;45.306;20.448;2024-03-22T14:18:50;512.70;1305.60
57030;DHT22;42920;45.306;20.448;2024-03-22T14:21:17;512.60;1305.60
57030;DHT22;42920;45.306;20.448;2024-03-22T14:23:53;512.50;1305.60
57030;DHT22;42920;45.306;20.448;2024-03-22T14:26:20;512.40;1305.60
57030;DHT22;42920;45.306;20.448;2024-03-22T14:28:46;512.40;1356.80
57030;DHT22;42920;45.306;20.448;2024-03-22T14:31:13;512.40;1356.80
57030;DHT22;42920;45.306;20.448;2024-03-22T14:33:39;512.30;1356.80